Time;durP1;ratioP1;P1;durP2;ratioP2;P2;SDS_P1;SDS_P2;PMS_P1;PMS_P2;Temp;Humidity;BMP_temperature;BMP_pressure;BME280_temperature;BME280_humidity;BME280_pressure;Samples;Min_cycle;Max_cycle;Signal;HPM_P1;HPM_P2
2023/01/13 00:00:56;;;;;;;0.73;0.73;;;;;;;13.28;72.21;99952.78;4903699;28;97901;-49
2023/01/13 00:03:22;;;;;;;0.90;0.87;;;;;;;13.29;72.28;99957.06;4909542;28;97062;-50
2023/01/13 00:05:47;;;;;;;1.00;1.00;;;;;;;13.30;72.40;99939.19;4909376;28;97052;-52
2023/01/13 00:08:12;;;;;;;1.03;1.03;;;;;;;13.34;72.26;99956.22;4904454;28;97289;-50
2023/01/13 00:10:38;;;;;;;5.10;0.87;;;;;;;13.34;72.21;99947.19;4912150;28;96976;-50
2023/01/13 00:13:04;;;;;;;0.87;0.80;;;;;;;13.36;72.05;99941.88;4909673;28;97325;-51
2023/01/13 00:15:30;;;;;;;1.00;0.90;;;;;;;13.31;72.16;99926.88;4908635;28;97283;-50
2023/01/13 00:17:56;;;;;;;0.83;0.83;;;;;;;13.32;72.17;99930.38;4910998;28;97018;-50
2023/01/13 00:20:21;;;;;;;1.17;1.17;;;;;;;13.27;72.09;99920.19;4912531;28;96921;-51
2023/01/13 00:22:46;;;;;;;1.07;0.87;;;;;;;13.27;72.47;99920.94;4909471;28;97106;-49
2023/01/13 00:25:12;;;;;;;3.37;1.23;;;;;;;13.30;72.29;99925.38;4908041;28;96824;-50
2023/01/13 00:27:38;;;;;;;1.30;1.20;;;;;;;13.29;72.14;99926.66;4907376;28;97501;-50
2023/01/13 00:30:04;;;;;;;1.20;1.20;;;;;;;13.24;72.24;99921.97;4909263;28;97940;-50
2023/01/13 00:32:30;;;;;;;1.93;0.93;;;;;;;13.23;72.27;99908.69;4906321;28;97547;-50
2023/01/13 00:34:55;;;;;;;1.20;0.93;;;;;;;13.22;72.34;99929.28;4908374;28;97266;-51
2023/01/13 00:37:20;;;;;;;1.40;1.40;;;;;;;13.20;72.53;99898.69;4904684;28;97393;-51
2023/01/13 00:39:46;;;;;;;1.87;1.60;;;;;;;13.18;72.18;99902.00;4911053;28;96984;-52
2023/01/13 00:44:55;;;;;;;1.17;1.07;;;;;;;13.16;72.46;99896.25;4909160;28;97004;-51
2023/01/13 00:47:22;;;;;;;1.10;1.10;;;;;;;13.18;72.74;99885.41;4907573;28;97427;-51
2023/01/13 00:49:48;;;;;;;1.23;1.03;;;;;;;13.19;72.47;99886.91;4912964;28;97388;-51
2023/01/13 00:52:14;;;;;;;1.07;0.97;;;;;;;13.19;72.60;99888.94;4910270;28;96621;-51
2023/01/13 00:54:40;;;;;;;2.80;1.70;;;;;;;13.17;72.33;99888.72;4913156;28;97084;-51
2023/01/13 00:57:05;;;;;;;1.60;1.50;;;;;;;13.15;72.54;99896.78;4911693;28;97430;-51
2023/01/13 00:59:30;;;;;;;1.60;1.50;;;;;;;13.17;72.36;99908.06;4908640;28;97055;-52
2023/01/13 01:01:56;;;;;;;1.53;1.30;;;;;;;13.19;72.44;99911.03;4913783;28;96842;-50
2023/01/13 01:04:21;;;;;;;1.27;1.17;;;;;;;13.18;72.39;99899.22;4910417;28;96990;-50
2023/01/13 01:06:47;;;;;;;1.87;1.17;;;;;;;13.18;72.31;99893.72;4908988;28;97656;-50
2023/01/13 01:09:14;;;;;;;3.90;1.83;;;;;;;13.16;72.40;99890.72;4909700;28;97023;-49
2023/01/13 01:11:40;;;;;;;1.60;1.50;;;;;;;13.16;72.28;99890.72;4913091;28;97539;-50
2023/01/13 01:14:06;;;;;;;3.43;1.23;;;;;;;13.16;72.31;99884.47;4909699;28;96978;-54
2023/01/13 01:16:32;;;;;;;1.30;1.30;;;;;;;13.15;72.17;99883.72;4912792;28;97908;-51
2023/01/13 01:18:59;;;;;;;1.17;1.17;;;;;;;13.14;72.19;99890.50;4914204;28;96952;-51
2023/01/13 01:21:26;;;;;;;1.23;1.13;;;;;;;13.09;71.98;99885.81;4908827;28;97038;-53
2023/01/13 01:23:52;;;;;;;1.40;1.40;;;;;;;13.07;72.13;99888.38;4911757;28;97595;-50
2023/01/13 01:26:21;;;;;;;1.20;1.10;;;;;;;13.07;72.25;99907.69;4915014;28;96932;-49
2023/01/13 01:28:46;;;;;;;0.90;0.90;;;;;;;13.08;72.12;99902.94;4911125;28;97693;-50
2023/01/13 01:31:32;;;;;;;1.00;1.00;;;;;;;13.05;71.67;99904.72;4910512;28;97182;-52
2023/01/13 01:33:58;;;;;;;1.00;0.90;;;;;;;13.07;72.10;99910.47;4906813;28;97015;-51
2023/01/13 01:36:31;;;;;;;0.80;0.73;;;;;;;13.04;71.91;99925.28;4907575;28;97290;-51
2023/01/13 01:38:57;;;;;;;1.00;1.00;;;;;;;13.03;71.90;99923.81;4913325;28;97170;-51
2023/01/13 01:41:26;;;;;;;1.10;0.90;;;;;;;13.04;71.79;99924.56;4913137;28;97039;-51
2023/01/13 01:44:02;;;;;;;0.87;0.87;;;;;;;13.08;71.85;99927.78;4910677;28;96950;-51
2023/01/13 01:46:28;;;;;;;1.40;1.30;;;;;;;13.08;71.57;99936.81;4908819;28;96813;-51
2023/01/13 01:49:04;;;;;;;1.10;1.10;;;;;;;13.11;71.71;99944.03;4912132;28;96978;-48
2023/01/13 01:51:34;;;;;;;2.40;0.80;;;;;;;13.12;71.65;99931.72;4906653;28;97175;-51
2023/01/13 01:54:03;;;;;;;0.93;0.83;;;;;;;13.14;71.43;99928.44;4914692;28;97205;-51
2023/01/13 01:56:29;;;;;;;1.10;1.00;;;;;;;13.14;71.36;99947.75;4912111;28;97308;-51
2023/01/13 01:58:55;;;;;;;1.60;0.83;;;;;;;13.14;71.11;99934.69;4907128;28;96732;-51
2023/01/13 02:01:20;;;;;;;0.80;0.80;;;;;;;13.13;71.09;99930.44;4910840;28;97343;-50
2023/01/13 02:04:04;;;;;;;1.90;1.10;;;;;;;13.11;70.61;99935.75;4913456;28;97118;-52
2023/01/13 02:06:29;;;;;;;2.00;0.87;;;;;;;13.09;70.90;99946.56;4907512;28;96806;-51
2023/01/13 02:08:56;;;;;;;2.70;1.00;;;;;;;13.10;70.99;99967.41;4913567;28;97114;-51
2023/01/13 02:14:15;;;;;;;3.07;0.67;;;;;;;13.11;70.56;99948.81;4904594;28;97173;-49
2023/01/13 02:16:49;;;;;;;5.53;0.87;;;;;;;13.10;70.41;99930.75;4912551;28;98206;-49
2023/01/13 02:19:29;;;;;;;1.33;0.60;;;;;;;13.05;70.26;99926.81;4912545;28;97134;-51
2023/01/13 02:22:12;;;;;;;1.37;0.43;;;;;;;12.99;69.37;99942.69;4909423;28;96946;-50
2023/01/13 02:25:15;;;;;;;1.90;0.70;;;;;;;12.97;69.44;99953.53;4910810;28;96853;-54
2023/01/13 02:27:57;;;;;;;0.60;0.40;;;;;;;12.93;69.80;99947.53;4908279;28;97183;-50
2023/01/13 02:33:35;;;;;;;2.10;0.70;;;;;;;12.87;70.03;99949.66;4910743;28;96696;-50
2023/01/13 02:36:04;;;;;;;1.13;0.70;;;;;;;12.85;69.79;99941.16;4907728;28;96726;-50
2023/01/13 02:38:39;;;;;;;2.70;0.70;;;;;;;12.84;69.55;99934.16;4909038;28;96950;-51
2023/01/13 02:44:07;;;;;;;1.37;0.70;;;;;;;12.76;69.22;99947.06;4907655;28;96978;-50
2023/01/13 02:46:36;;;;;;;1.43;0.60;;;;;;;12.76;69.33;99941.53;4908970;28;96791;-50
2023/01/13 02:49:07;;;;;;;1.77;0.60;;;;;;;12.74;69.06;99944.81;4908740;28;96731;-50
2023/01/13 02:51:34;;;;;;;1.67;0.67;;;;;;;12.70;68.99;99947.16;4905539;28;96924;-50
2023/01/13 02:54:14;;;;;;;0.80;0.60;;;;;;;12.66;68.45;99940.44;4911943;28;96870;-50
2023/01/13 02:56:43;;;;;;;0.70;0.60;;;;;;;12.65;69.05;99942.44;4914360;28;97257;-50
2023/01/13 02:59:10;;;;;;;1.73;0.67;;;;;;;12.67;69.19;99947.44;4905436;28;97500;-50
2023/01/13 03:01:36;;;;;;;2.30;0.80;;;;;;;12.68;69.05;99946.19;4905721;28;97129;-50
2023/01/13 03:04:44;;;;;;;4.10;0.70;;;;;;;12.66;66.99;99943.19;4907023;28;97007;-51
2023/01/13 03:07:34;;;;;;;0.80;0.50;;;;;;;12.63;67.93;99944.22;4905817;28;97354;-50
2023/01/13 03:10:11;;;;;;;3.00;1.00;;;;;;;12.59;68.66;99944.53;4912539;28;97117;-49
2023/01/13 03:12:49;;;;;;;3.07;1.13;;;;;;;12.60;68.60;99939.78;4908931;28;97220;-49
2023/01/13 03:15:39;;;;;;;4.00;1.00;;;;;;;12.62;68.08;99934.47;4907179;28;96997;-51
2023/01/13 03:18:49;;;;;;;3.90;0.80;;;;;;;12.64;67.97;99934.69;4914024;28;96903;-50
2023/01/13 03:21:24;;;;;;;1.77;0.60;;;;;;;12.64;68.36;99937.47;4897951;28;98161;-50
2023/01/13 03:23:56;;;;;;;2.77;0.77;;;;;;;12.68;68.54;99940.66;4912371;28;97672;-50
2023/01/13 03:26:34;;;;;;;2.03;1.00;;;;;;;12.70;68.28;99947.16;4910592;28;97213;-50
2023/01/13 03:29:13;;;;;;;1.63;0.60;;;;;;;12.71;68.41;99948.63;4907247;28;97118;-53
2023/01/13 03:31:46;;;;;;;3.20;0.77;;;;;;;12.69;68.36;99953.91;4910076;28;97128;-51
2023/01/13 03:34:20;;;;;;;2.97;0.60;;;;;;;12.65;68.36;99964.53;4907887;28;96775;-50
2023/01/13 03:36:50;;;;;;;2.70;0.90;;;;;;;12.63;68.79;99963.56;4908253;28;96647;-50
2023/01/13 03:39:21;;;;;;;2.40;0.70;;;;;;;12.59;68.66;99958.34;4908369;28;97102;-49
2023/01/13 03:41:58;;;;;;;1.30;0.63;;;;;;;12.57;68.32;99957.38;4909646;28;97227;-51
2023/01/13 03:44:41;;;;;;;2.03;0.73;;;;;;;12.51;68.20;99960.22;4901315;28;96711;-50
2023/01/13 03:47:10;;;;;;;7.00;1.00;;;;;;;12.46;68.78;99961.03;4910616;28;96976;-50
2023/01/13 03:49:56;;;;;;;5.07;1.23;;;;;;;12.45;68.39;99965.03;4911297;28;97315;-51
2023/01/13 03:52:27;;;;;;;2.30;0.70;;;;;;;12.41;68.64;99972.13;4907270;28;96710;-51
2023/01/13 03:55:10;;;;;;;1.20;0.60;;;;;;;12.37;68.66;99969.66;4913461;28;96861;-51
2023/01/13 03:57:45;;;;;;;1.03;0.70;;;;;;;12.36;68.58;99976.44;4905846;28;97150;-50
2023/01/13 04:00:13;;;;;;;3.37;1.07;;;;;;;12.35;68.65;99974.22;4904269;28;96984;-50
2023/01/13 04:02:44;;;;;;;5.80;0.90;;;;;;;12.35;68.45;99965.94;4909083;28;96843;-50
2023/01/13 04:05:11;;;;;;;2.00;0.90;;;;;;;12.36;68.64;99972.94;4905721;28;97951;-51
2023/01/13 04:07:47;;;;;;;1.70;0.90;;;;;;;12.38;68.39;99964.91;4907571;28;96770;-50
2023/01/13 04:10:18;;;;;;;2.17;0.80;;;;;;;12.34;68.23;99973.44;4912117;28;96920;-50
2023/01/13 04:13:01;;;;;;;2.93;1.30;;;;;;;12.33;68.08;99985.00;4912236;28;97156;-52
2023/01/13 04:15:33;;;;;;;2.40;0.90;;;;;;;12.29;67.92;99979.06;4912135;28;96916;-49
2023/01/13 04:18:19;;;;;;;4.00;0.80;;;;;;;12.22;66.84;99974.13;4908172;28;97116;-50
2023/01/13 04:20:47;;;;;;;1.10;0.70;;;;;;;12.18;68.05;99973.66;4906406;28;97009;-51
2023/01/13 04:23:13;;;;;;;4.00;1.17;;;;;;;12.14;67.63;99979.50;4911840;28;98044;-50
2023/01/13 04:25:40;;;;;;;5.90;1.00;;;;;;;12.12;67.73;99986.78;4910583;28;96642;-52
2023/01/13 04:28:05;;;;;;;5.67;1.27;;;;;;;12.08;67.69;99986.34;4904419;28;96681;-50
2023/01/13 04:30:31;;;;;;;3.80;1.27;;;;;;;12.03;67.62;99977.56;4912204;28;96807;-50
2023/01/13 04:32:56;;;;;;;3.63;1.60;;;;;;;12.03;67.76;99974.81;4913883;28;97537;-53
2023/01/13 04:35:22;;;;;;;8.37;1.20;;;;;;;12.03;67.55;99991.38;4913423;28;97143;-50
2023/01/13 04:37:47;;;;;;;1.60;0.90;;;;;;;12.04;67.29;99978.34;4911719;28;96790;-49
2023/01/13 04:40:13;;;;;;;3.60;1.00;;;;;;;12.03;67.24;99977.56;4917961;28;97143;-49
2023/01/13 04:42:38;;;;;;;3.70;1.33;;;;;;;11.97;66.79;99976.91;4912838;28;97166;-49
2023/01/13 04:45:04;;;;;;;4.20;1.63;;;;;;;11.91;67.11;99972.72;4912243;28;96836;-51
2023/01/13 04:47:29;;;;;;;4.20;1.00;;;;;;;11.88;67.23;99974.50;4914154;28;96927;-49
2023/01/13 04:49:54;;;;;;;5.00;1.17;;;;;;;11.86;67.18;99968.75;4908330;28;96929;-49
2023/01/13 04:52:20;;;;;;;4.23;1.30;;;;;;;11.81;67.15;99955.03;4908345;28;98028;-51
2023/01/13 04:54:46;;;;;;;4.77;1.20;;;;;;;11.76;66.87;99955.84;4914383;28;97033;-49
2023/01/13 04:57:12;;;;;;;1.57;0.90;;;;;;;11.73;67.19;99957.63;4911581;28;97127;-52
2023/01/13 04:59:37;;;;;;;4.30;1.50;;;;;;;11.67;66.99;99956.94;4906060;28;96788;-51
2023/01/13 05:02:02;;;;;;;3.70;1.47;;;;;;;11.62;67.04;99962.47;4916638;28;97798;-51
2023/01/13 05:04:28;;;;;;;9.50;1.70;;;;;;;11.59;66.91;99963.50;4912343;28;96878;-50
2023/01/13 05:06:53;;;;;;;3.70;1.70;;;;;;;11.57;67.07;99969.53;4908532;28;97305;-50
2023/01/13 05:09:18;;;;;;;2.53;1.53;;;;;;;11.56;67.11;99973.53;4913963;28;96643;-52
2023/01/13 05:17:19;;;;;;;4.60;1.33;;;;;;;11.53;66.74;99963.53;4914480;28;96704;-51
2023/01/13 05:19:44;;;;;;;5.33;1.87;;;;;;;11.54;66.84;99956.78;4919006;28;99109;-49
2023/01/13 05:27:37;;;;;;;2.90;1.43;;;;;;;11.43;66.76;99950.63;4908946;28;96849;-52
2023/01/13 05:30:04;;;;;;;5.90;1.83;;;;;;;11.40;66.66;99960.66;4909437;28;97031;-50
2023/01/13 05:32:30;;;;;;;10.43;1.20;;;;;;;11.36;66.86;99960.19;4909158;28;96733;-52
2023/01/13 05:34:55;;;;;;;5.90;1.90;;;;;;;11.37;66.81;99969.97;4910096;28;97159;-50
2023/01/13 05:37:22;;;;;;;8.97;1.60;;;;;;;11.36;66.85;99962.94;4908739;28;96827;-50
2023/01/13 05:45:15;;;;;;;3.63;1.87;;;;;;;11.25;66.56;99949.28;4908904;28;97446;-50
2023/01/13 05:47:41;;;;;;;8.37;1.70;;;;;;;11.20;66.68;99947.34;4913517;28;97087;-50
2023/01/13 05:50:07;;;;;;;6.80;1.60;;;;;;;11.22;66.81;99953.06;4909037;28;97097;-50
2023/01/13 05:52:33;;;;;;;4.80;1.20;;;;;;;11.23;66.65;99954.56;4908970;28;96961;-50
2023/01/13 05:54:58;;;;;;;3.97;1.30;;;;;;;11.25;66.62;99950.03;4913435;28;96706;-51
2023/01/13 05:57:23;;;;;;;7.13;1.50;;;;;;;11.31;66.68;99944.50;4910075;28;96808;-51
2023/01/13 05:59:49;;;;;;;2.83;1.07;;;;;;;11.35;66.66;99944.94;4908375;28;97103;-51
2023/01/13 06:02:14;;;;;;;7.23;1.50;;;;;;;11.38;66.69;99946.66;4914680;28;96987;-51
2023/01/13 06:04:39;;;;;;;7.13;2.20;;;;;;;11.39;66.50;99942.66;4913060;28;97247;-50
2023/01/13 06:07:05;;;;;;;6.80;1.30;;;;;;;11.40;66.38;99946.88;4908706;28;97041;-51
2023/01/13 06:09:30;;;;;;;9.63;1.23;;;;;;;11.44;66.31;99944.63;4914797;28;97131;-50
2023/01/13 06:11:56;;;;;;;8.37;1.43;;;;;;;11.49;66.37;99954.81;4909580;28;97121;-49
2023/01/13 06:14:21;;;;;;;6.40;1.87;;;;;;;11.50;66.12;99941.81;4905418;28;96880;-51
2023/01/13 06:16:46;;;;;;;9.63;1.40;;;;;;;11.49;66.41;99949.31;4918417;28;97355;-50
2023/01/13 06:19:12;;;;;;;4.73;1.30;;;;;;;11.47;66.17;99946.31;4911607;28;97056;-51
2023/01/13 06:21:43;;;;;;;8.07;2.20;;;;;;;11.51;65.96;99952.28;4907885;28;97182;-49
2023/01/13 06:24:09;;;;;;;5.90;1.90;;;;;;;11.50;66.17;99948.06;4910619;28;97272;-50
2023/01/13 06:26:39;;;;;;;6.20;1.97;;;;;;;11.52;65.91;99945.53;4910258;28;97114;-51
2023/01/13 06:29:05;;;;;;;5.03;1.33;;;;;;;11.48;65.87;99950.59;4906024;28;96763;-51
2023/01/13 06:31:34;;;;;;;8.53;1.80;;;;;;;11.45;65.90;99940.59;4911020;28;97511;-50
2023/01/13 06:34:04;;;;;;;5.50;1.23;;;;;;;11.47;66.03;99940.81;4907172;28;96984;-49
2023/01/13 06:36:37;;;;;;;9.33;1.40;;;;;;;11.46;65.83;99936.59;4906485;28;96856;-49
2023/01/13 06:39:03;;;;;;;5.80;1.63;;;;;;;11.46;65.99;99938.59;4907879;28;96841;-50
2023/01/13 06:44:16;;;;;;;9.83;1.37;;;;;;;11.47;66.06;99945.56;4908246;28;97025;-50
2023/01/13 06:46:41;;;;;;;4.23;1.57;;;;;;;11.46;65.87;99946.84;4907869;28;97180;-50
2023/01/13 06:49:08;;;;;;;4.37;1.30;;;;;;;11.47;65.62;99938.06;4909515;28;97372;-50
2023/01/13 06:51:33;;;;;;;5.63;1.77;;;;;;;11.47;65.88;99929.81;4904137;28;97384;-50
2023/01/13 06:53:58;;;;;;;7.80;1.73;;;;;;;11.55;65.97;99936.25;4913815;28;97318;-50
2023/01/13 06:56:24;;;;;;;11.83;1.50;;;;;;;11.58;65.82;99924.19;4914104;28;97128;-49
2023/01/13 06:58:49;;;;;;;4.70;1.80;;;;;;;11.62;65.59;99932.91;4908003;28;97232;-50
2023/01/13 07:01:14;;;;;;;8.07;1.67;;;;;;;11.62;65.71;99941.16;4908754;28;97215;-50
2023/01/13 07:03:40;;;;;;;6.50;1.43;;;;;;;11.64;65.58;99935.88;4912729;28;97582;-50
2023/01/13 07:06:06;;;;;;;9.63;1.43;;;;;;;11.60;65.40;99949.22;4910678;28;96694;-50
2023/01/13 07:08:31;;;;;;;7.50;1.80;;;;;;;11.61;65.63;99945.19;4910040;28;97033;-50
2023/01/13 07:10:56;;;;;;;8.37;1.60;;;;;;;11.62;65.42;99952.19;4911257;28;97417;-49
2023/01/13 07:16:08;;;;;;;3.40;1.10;;;;;;;11.62;65.27;99956.97;4912968;28;97186;-50
2023/01/13 07:18:34;;;;;;;5.80;1.40;;;;;;;11.65;65.56;99956.69;4907490;28;96973;-50
2023/01/13 07:21:02;;;;;;;6.73;1.27;;;;;;;11.66;65.27;99973.97;4908580;28;97311;-50
2023/01/13 07:23:30;;;;;;;9.17;1.93;;;;;;;11.64;65.23;99968.94;4909376;28;98277;-50
2023/01/13 07:25:57;;;;;;;14.23;2.23;;;;;;;11.66;65.47;99979.47;4909954;28;97208;-49
2023/01/13 07:28:23;;;;;;;6.27;1.87;;;;;;;11.69;65.32;99962.66;4908996;28;99185;-49
2023/01/13 07:30:49;;;;;;;7.53;1.53;;;;;;;11.67;65.12;99962.44;4907051;28;97336;-50
2023/01/13 07:33:14;;;;;;;6.77;1.70;;;;;;;11.68;65.29;99974.97;4909731;28;96678;-50
2023/01/13 07:35:40;;;;;;;3.80;1.40;;;;;;;11.69;65.44;99965.44;4909285;28;97183;-49
2023/01/13 07:38:07;;;;;;;6.20;1.77;;;;;;;11.68;64.86;99974.22;4909487;28;97121;-49
2023/01/13 07:40:32;;;;;;;11.13;1.87;;;;;;;11.70;65.07;99977.19;4908071;28;97377;-50
2023/01/13 07:45:41;;;;;;;6.90;2.17;;;;;;;11.71;64.83;99973.16;4908679;28;97049;-50
2023/01/13 07:48:07;;;;;;;6.87;1.60;;;;;;;11.73;65.03;99996.19;4910428;28;97136;-51
2023/01/13 07:50:32;;;;;;;5.50;1.67;;;;;;;11.70;65.01;99986.22;4906949;28;97238;-49
2023/01/13 07:52:58;;;;;;;11.33;1.17;;;;;;;11.72;65.28;99994.72;4906919;28;97770;-50
2023/01/13 07:55:23;;;;;;;6.50;1.30;;;;;;;11.73;64.83;99993.44;4912998;28;97019;-49
2023/01/13 07:57:49;;;;;;;3.97;1.30;;;;;;;11.75;64.91;99984.69;4907797;28;96944;-51
2023/01/13 08:00:14;;;;;;;3.53;1.57;;;;;;;11.72;64.42;99994.72;4911164;28;96957;-51
2023/01/13 08:02:40;;;;;;;4.87;1.40;;;;;;;11.70;64.65;99996.50;4911673;28;97278;-50
2023/01/13 08:05:06;;;;;;;3.13;0.90;;;;;;;11.70;64.68;99996.50;4908574;28;97164;-51
2023/01/13 08:07:32;;;;;;;3.33;1.23;;;;;;;11.67;64.55;99998.25;4907622;28;97151;-49
2023/01/13 08:09:57;;;;;;;4.47;1.20;;;;;;;11.65;64.47;99995.25;4910686;28;96923;-51
2023/01/13 08:15:08;;;;;;;7.03;1.33;;;;;;;11.67;64.62;99986.50;4905136;28;97275;-50
2023/01/13 08:17:34;;;;;;;4.30;1.57;;;;;;;11.66;64.48;99996.75;4909055;28;96886;-50
2023/01/13 08:20:00;;;;;;;4.57;1.27;;;;;;;11.67;64.45;99997.50;4907516;28;97526;-54
2023/01/13 08:22:25;;;;;;;5.93;1.53;;;;;;;11.67;64.36;99990.00;4902144;28;100162;-50
2023/01/13 08:24:50;;;;;;;3.97;1.20;;;;;;;11.71;64.05;100000.72;4910045;28;97059;-50
2023/01/13 08:27:16;;;;;;;6.73;1.20;;;;;;;11.73;64.18;99998.22;4915639;28;97188;-50
2023/01/13 08:29:42;;;;;;;2.67;0.70;;;;;;;11.76;64.15;99997.94;4907812;28;97505;-51
2023/01/13 08:32:07;;;;;;;4.67;1.00;;;;;;;11.78;63.99;100000.16;4905088;28;97689;-49
2023/01/13 08:34:32;;;;;;;5.77;0.90;;;;;;;11.77;63.95;100001.44;4908633;28;96634;-51
2023/01/13 08:36:58;;;;;;;2.73;0.90;;;;;;;11.74;63.63;100005.97;4903657;28;96887;-51
2023/01/13 08:39:24;;;;;;;2.90;0.80;;;;;;;11.71;63.89;100001.47;4906791;28;97380;-50
2023/01/13 08:41:55;;;;;;;3.87;0.80;;;;;;;11.69;63.36;100009.50;4908061;28;97877;-50
2023/01/13 08:44:22;;;;;;;5.73;1.37;;;;;;;11.67;63.71;100003.78;4904578;28;96855;-49
2023/01/13 08:46:48;;;;;;;6.50;1.43;;;;;;;11.65;63.76;100005.50;4915125;28;96909;-50
2023/01/13 08:49:14;;;;;;;4.07;1.40;;;;;;;11.60;63.72;100001.56;4910133;28;97258;-50
2023/01/13 08:51:40;;;;;;;5.07;0.90;;;;;;;11.55;63.71;100005.13;4905817;28;97356;-54
2023/01/13 08:54:05;;;;;;;4.03;1.17;;;;;;;11.54;63.67;100009.13;4909202;28;97070;-52
2023/01/13 08:56:31;;;;;;;2.63;0.97;;;;;;;11.57;63.81;100010.84;4909936;28;96671;-49
2023/01/13 08:58:57;;;;;;;3.40;1.10;;;;;;;11.59;63.52;100019.34;4906176;28;97976;-50
2023/01/13 09:01:23;;;;;;;3.57;0.77;;;;;;;11.60;63.59;100014.59;4909653;28;97372;-49
2023/01/13 09:03:48;;;;;;;5.97;1.30;;;;;;;11.62;63.69;100004.53;4911404;28;96851;-50
2023/01/13 09:06:14;;;;;;;2.70;0.60;;;;;;;11.69;63.60;100012.28;4909303;28;96769;-51
2023/01/13 09:08:39;;;;;;;2.50;1.00;;;;;;;11.76;63.62;100010.97;4907764;28;97216;-50
2023/01/13 09:13:10;;;;;;;4.60;1.20;;;;;;;11.79;63.34;100010.69;4914567;28;97171;-50
2023/01/13 09:13:50;;;;;;;7.90;1.53;;;;;;;11.82;63.41;100009.63;4910264;28;97272;-51
2023/01/13 09:16:16;;;;;;;4.87;1.03;;;;;;;11.85;63.29;100008.63;4913347;28;96862;-50
2023/01/13 09:18:41;;;;;;;4.50;0.87;;;;;;;11.82;63.12;100022.66;4909609;28;97138;-51
2023/01/13 09:21:09;;;;;;;5.13;1.17;;;;;;;11.79;62.96;100032.72;4907656;28;97164;-51
2023/01/13 09:23:35;;;;;;;2.97;0.93;;;;;;;11.76;62.81;100022.72;4908970;28;96748;-52
2023/01/13 09:26:00;;;;;;;5.43;1.20;;;;;;;11.71;63.24;100023.50;4913587;28;96930;-50
2023/01/13 09:28:25;;;;;;;2.57;1.03;;;;;;;11.70;63.23;100030.31;4909921;28;97953;-53
2023/01/13 09:30:51;;;;;;;7.53;1.03;;;;;;;11.75;63.34;100029.50;4910930;28;97602;-51
2023/01/13 09:36:00;;;;;;;4.70;1.40;;;;;;;11.80;63.21;100031.47;4909409;28;96953;-50
2023/01/13 09:38:26;;;;;;;5.33;0.97;;;;;;;11.84;63.21;100026.41;4915250;28;97611;-50
2023/01/13 09:40:51;;;;;;;2.43;1.10;;;;;;;11.91;63.10;100034.09;4912499;28;97168;-49
2023/01/13 09:46:45;;;;;;;6.07;1.07;;;;;;;11.88;62.39;100032.38;4911776;28;96932;-49
2023/01/13 09:49:29;;;;;;;6.43;1.23;;;;;;;11.87;61.29;100039.16;4918055;28;97055;-49
2023/01/13 09:52:19;;;;;;;7.33;1.20;;;;;;;11.89;62.10;100031.13;4908241;28;97094;-49
2023/01/13 09:54:51;;;;;;;4.93;1.20;;;;;;;11.91;62.33;100028.59;4909104;28;97002;-50
2023/01/13 09:57:19;;;;;;;4.57;1.20;;;;;;;11.96;62.83;100030.56;4910097;28;97114;-50
2023/01/13 09:59:45;;;;;;;9.03;1.27;;;;;;;11.96;62.64;100025.03;4909306;28;97247;-53
2023/01/13 10:02:26;;;;;;;2.30;1.10;;;;;;;11.98;62.58;100028.03;4916727;28;97066;-49
2023/01/13 10:05:10;;;;;;;4.67;1.10;;;;;;;12.07;60.92;100006.88;4908068;28;97119;-49
2023/01/13 10:07:43;;;;;;;6.23;1.37;;;;;;;12.06;62.11;100019.19;4908784;28;96922;-49
2023/01/13 10:10:18;;;;;;;5.27;1.13;;;;;;;12.05;62.04;100018.44;4911313;28;96966;-48
2023/01/13 10:15:30;;;;;;;3.77;0.90;;;;;;;11.99;62.38;100028.78;4907889;28;96890;-51
2023/01/13 10:18:14;;;;;;;4.33;1.10;;;;;;;11.97;61.43;100012.75;4906880;28;97083;-52
2023/01/13 10:20:51;;;;;;;2.67;1.03;;;;;;;11.98;60.42;100019.75;4906938;28;96861;-52
2023/01/13 10:23:36;;;;;;;5.53;1.60;;;;;;;11.98;60.91;100016.25;4912564;28;96901;-50
2023/01/13 10:26:02;;;;;;;2.73;1.07;;;;;;;11.97;62.18;100015.50;4911790;28;97973;-50
2023/01/13 10:28:27;;;;;;;7.83;1.00;;;;;;;11.97;61.90;100021.00;4910379;28;96895;-50
2023/01/13 10:30:52;;;;;;;2.40;1.17;;;;;;;11.99;62.09;100024.00;4910617;28;97311;-49
2023/01/13 10:33:24;;;;;;;4.37;1.00;;;;;;;12.04;62.05;100014.94;4909361;28;97448;-51
2023/01/13 10:35:53;;;;;;;5.67;1.13;;;;;;;12.10;62.12;100008.63;4907285;28;97138;-49
2023/01/13 10:38:29;;;;;;;3.17;1.03;;;;;;;12.13;61.05;100010.31;4909773;28;96837;-50
2023/01/13 10:41:00;;;;;;;2.80;1.20;;;;;;;12.15;61.25;100011.28;4909061;28;97377;-51
2023/01/13 10:43:28;;;;;;;6.97;1.73;;;;;;;12.18;61.80;100010.28;4906356;28;96746;-50
2023/01/13 10:46:03;;;;;;;3.77;0.97;;;;;;;12.17;59.42;100006.00;4910977;28;97025;-49
2023/01/13 10:48:41;;;;;;;4.70;1.40;;;;;;;12.17;61.02;100017.03;4914990;28;96682;-50
2023/01/13 10:51:16;;;;;;;4.00;1.17;;;;;;;12.24;61.33;100021.97;4910879;28;97363;-50
2023/01/13 10:53:49;;;;;;;3.80;0.93;;;;;;;12.29;60.48;100023.19;4910990;28;97269;-50
2023/01/13 10:56:19;;;;;;;2.27;1.07;;;;;;;12.31;60.75;100026.91;4911437;28;97114;-50
2023/01/13 10:58:45;;;;;;;6.40;1.17;;;;;;;12.30;61.33;100019.91;4908599;28;96811;-49
2023/01/13 11:01:24;;;;;;;6.10;1.40;;;;;;;12.26;59.70;100030.47;4910037;28;97351;-49
2023/01/13 11:03:50;;;;;;;5.33;1.40;;;;;;;12.25;61.10;100033.75;4908698;28;97209;-52
2023/01/13 11:06:29;;;;;;;6.97;1.20;;;;;;;12.25;59.33;100017.97;4907163;28;97013;-53
2023/01/13 11:08:57;;;;;;;6.00;1.67;;;;;;;12.27;61.06;100020.19;4928423;28;96940;-49
2023/01/13 11:11:42;;;;;;;8.47;2.53;;;;;;;12.24;58.31;100018.47;4909887;28;97892;-49
2023/01/13 11:14:38;;;;;;;11.63;1.60;;;;;;;12.24;59.73;100018.47;4907412;28;97075;-50
2023/01/13 11:17:28;;;;;;;4.70;1.67;;;;;;;12.20;58.25;100015.25;4912510;28;97018;-50
2023/01/13 11:20:04;;;;;;;5.80;1.60;;;;;;;12.23;59.56;100025.25;4910353;28;97267;-50
2023/01/13 11:22:38;;;;;;;6.43;1.20;;;;;;;12.25;60.11;100023.47;4908249;28;97866;-48
2023/01/13 11:25:10;;;;;;;4.10;0.90;;;;;;;12.27;60.14;100020.94;4911877;28;96832;-50
2023/01/13 11:27:59;;;;;;;4.00;1.73;;;;;;;12.32;60.11;100030.44;4904513;28;97163;-49
2023/01/13 11:30:49;;;;;;;2.90;1.30;;;;;;;12.34;59.10;100014.09;4909390;28;96910;-53
2023/01/13 11:33:15;;;;;;;4.67;1.27;;;;;;;12.32;60.83;100031.16;4911215;28;98046;-51
2023/01/13 11:36:03;;;;;;;4.20;1.33;;;;;;;12.29;60.26;100031.47;4905513;28;97029;-52
2023/01/13 11:38:43;;;;;;;5.27;1.20;;;;;;;12.27;59.01;100039.50;4909893;28;96776;-49
2023/01/13 11:41:24;;;;;;;3.77;1.23;;;;;;;12.23;59.02;100023.22;4913027;28;97282;-49
2023/01/13 11:44:09;;;;;;;3.50;1.33;;;;;;;12.17;58.66;100027.31;4905169;28;97377;-50
2023/01/13 11:46:35;;;;;;;4.20;1.23;;;;;;;12.14;60.44;100033.88;4915202;28;97224;-49
2023/01/13 11:49:02;;;;;;;12.97;1.80;;;;;;;12.13;60.51;100029.63;4911515;28;96913;-49
2023/01/13 11:51:39;;;;;;;6.20;1.20;;;;;;;12.11;60.02;100032.16;4905047;28;97357;-49
2023/01/13 11:54:21;;;;;;;3.33;0.87;;;;;;;12.11;58.74;100034.91;4913687;28;97149;-52
2023/01/13 11:57:01;;;;;;;6.03;1.70;;;;;;;12.12;58.99;100025.38;4909292;28;96837;-52
2023/01/13 11:59:46;;;;;;;4.13;1.27;;;;;;;12.11;58.33;100030.16;4910089;28;96994;-50
2023/01/13 12:02:14;;;;;;;3.23;1.33;;;;;;;12.11;59.91;100023.88;4908300;28;97024;-50
2023/01/13 12:04:52;;;;;;;8.20;1.00;;;;;;;12.11;60.36;100029.38;4908860;28;97308;-49
2023/01/13 12:07:52;;;;;;;3.47;1.30;;;;;;;12.12;59.36;100026.13;4908696;28;97590;-48
2023/01/13 12:10:43;;;;;;;6.30;1.20;;;;;;;12.09;60.28;100024.41;4907566;28;97018;-50
2023/01/13 12:13:35;;;;;;;8.50;2.03;;;;;;;12.07;59.46;100024.19;4906459;28;97103;-50
2023/01/13 12:16:09;;;;;;;3.37;1.30;;;;;;;12.07;58.85;100024.19;4904540;28;97041;-49
2023/01/13 12:18:54;;;;;;;4.27;1.10;;;;;;;12.13;58.41;100019.34;4908409;28;96943;-48
2023/01/13 12:21:26;;;;;;;3.90;1.43;;;;;;;12.14;59.92;100020.09;4908805;28;97528;-49
2023/01/13 12:24:28;;;;;;;3.63;1.27;;;;;;;12.17;58.32;100027.31;4893690;28;97170;-50
2023/01/13 12:26:59;;;;;;;2.17;1.20;;;;;;;12.11;59.65;100013.59;4905586;28;98816;-50
2023/01/13 12:29:32;;;;;;;8.50;1.50;;;;;;;12.14;59.71;100023.59;4907405;28;97067;-49
2023/01/13 12:32:00;;;;;;;9.37;1.60;;;;;;;12.16;60.34;100031.34;4915228;28;97115;-49
2023/01/13 12:34:43;;;;;;;1.67;1.40;;;;;;;12.16;60.46;100053.41;4907420;28;97153;-50